Time,TemperatureF,DewpointF,PressureIn,WindDirection,WindDirectionDegrees,WindSpeedMPH,WindSpeedGustMPH,Humidity,HourlyPrecipIn,Conditions,Clouds,dailyrainin,SolarRadiationWatts/m^2,SoftwareType,DateUTC
2013-12-27 00:02:00,11.0,7.0,-100.00,North,-999,0.0,1.0,84,0.00,,,0.00,0.000000,,2013-12-27 06:02:00,
2013-12-27 00:12:00,11.0,7.0,-100.00,North,-999,0.0,1.0,84,0.00,,,0.00,0.000000,,2013-12-27 06:12:00,
2013-12-27 00:43:00,8.0,4.0,-100.00,North,-999,0.0,1.0,84,0.00,,,0.00,0.000000,,2013-12-27 06:43:00,
2013-12-27 00:52:00,8.0,4.0,-100.00,North,-999,0.0,1.0,84,0.00,,,0.00,0.000000,,2013-12-27 06:52:00,
2013-12-27 01:02:00,8.0,4.0,-100.00,North,-999,0.0,1.0,84,0.00,,,0.00,0.000000,,2013-12-27 07:02:00,
2013-12-27 01:12:00,8.0,4.0,-100.00,North,-999,0.0,1.0,84,0.00,,,0.00,0.000000,,2013-12-27 07:12:00,
2013-12-27 01:42:00,11.0,7.0,-100.00,North,-999,0.0,1.0,85,0.00,,,0.00,0.000000,,2013-12-27 07:42:00,
2013-12-27 01:52:00,11.0,7.0,-100.00,North,-999,0.0,1.0,85,0.00,,,0.00,0.000000,,2013-12-27 07:52:00,
2013-12-27 02:02:00,11.0,7.0,-100.00,North,-999,0.0,1.0,85,0.00,,,0.00,0.000000,,2013-12-27 08:02:00,
2013-12-27 02:11:00,11.0,7.0,-100.00,North,-999,0.0,1.0,85,0.00,,,0.00,0.000000,,2013-12-27 08:11:00,
2013-12-27 02:42:00,13.0,9.0,-100.00,ESE,110,1.0,3.0,85,0.00,,,0.00,0.000000,,2013-12-27 08:42:00,
2013-12-27 02:52:00,13.0,9.0,-100.00,ESE,110,1.0,3.0,85,0.00,,,0.00,0.000000,,2013-12-27 08:52:00,
2013-12-27 03:02:00,13.0,9.0,-100.00,ESE,110,1.0,3.0,85,0.00,,,0.00,0.000000,,2013-12-27 09:02:00,
2013-12-27 03:11:00,13.0,9.0,-100.00,ESE,110,1.0,3.0,85,0.00,,,0.00,0.000000,,2013-12-27 09:11:00,
2013-12-27 03:43:00,12.0,8.0,-100.00,North,-999,0.0,2.0,84,0.00,,,0.00,0.000000,,2013-12-27 09:43:00,
2013-12-27 03:53:00,12.0,8.0,-100.00,North,-999,0.0,2.0,84,0.00,,,0.00,0.000000,,2013-12-27 09:53:00,
2013-12-27 04:03:00,12.0,8.0,-100.00,North,-999,0.0,2.0,84,0.00,,,0.00,0.000000,,2013-12-27 10:03:00,
2013-12-27 04:12:00,12.0,8.0,-100.00,North,-999,0.0,2.0,84,0.00,,,0.00,0.000000,,2013-12-27 10:12:00,
2013-12-27 04:42:00,12.0,9.0,-100.00,SE,124,1.0,5.0,87,0.00,,,-99.99,0.000000,,2013-12-27 10:42:00,
2013-12-27 04:53:00,12.0,9.0,-100.00,SE,124,1.0,5.0,87,0.00,,,-99.99,0.000000,,2013-12-27 10:53:00,
2013-12-27 05:02:00,12.0,9.0,-100.00,SE,124,1.0,5.0,87,0.00,,,-99.99,0.000000,,2013-12-27 11:02:00,
2013-12-27 05:12:00,12.0,9.0,-100.00,SE,124,1.0,5.0,87,0.00,,,-99.99,0.000000,,2013-12-27 11:12:00,
2013-12-27 05:43:00,14.0,11.0,-100.00,North,-999,0.0,3.0,86,0.00,,,0.00,0.000000,,2013-12-27 11:43:00,
2013-12-27 05:53:00,14.0,11.0,-100.00,North,-999,0.0,3.0,86,0.00,,,0.00,0.000000,,2013-12-27 11:53:00,
2013-12-27 06:01:00,14.0,11.0,-100.00,North,-999,0.0,3.0,86,0.00,,,0.00,0.000000,,2013-12-27 12:01:00,
2013-12-27 06:11:00,14.0,11.0,-100.00,North,-999,0.0,3.0,86,0.00,,,0.00,0.000000,,2013-12-27 12:11:00,
2013-12-27 06:42:00,16.0,13.0,-100.00,SE,137,1.0,3.0,88,0.00,,,0.00,0.000000,,2013-12-27 12:42:00,
2013-12-27 06:53:00,16.0,13.0,-100.00,SE,137,1.0,3.0,88,0.00,,,0.00,0.000000,,2013-12-27 12:53:00,
2013-12-27 07:02:00,16.0,13.0,-100.00,SE,137,1.0,3.0,88,0.00,,,0.00,0.000000,,2013-12-27 13:02:00,
2013-12-27 07:11:00,16.0,13.0,-100.00,SE,137,1.0,3.0,88,0.00,,,0.00,0.000000,,2013-12-27 13:11:00,
2013-12-27 07:42:00,19.0,16.0,-100.00,SSE,160,2.0,5.0,89,0.00,,,0.00,0.000000,,2013-12-27 13:42:00,
2013-12-27 07:53:00,19.0,16.0,-100.00,SSE,160,2.0,5.0,89,0.00,,,0.00,0.000000,,2013-12-27 13:53:00,
2013-12-27 08:02:00,19.0,16.0,-100.00,SSE,160,2.0,5.0,89,0.00,,,0.00,0.000000,,2013-12-27 14:02:00,
2013-12-27 08:12:00,19.0,16.0,-100.00,SSE,160,2.0,5.0,89,0.00,,,0.00,0.000000,,2013-12-27 14:12:00,
2013-12-27 08:42:00,21.0,19.0,-100.00,SSE,150,2.0,4.0,90,0.00,,,-99.99,1.000000,,2013-12-27 14:42:00,
2013-12-27 08:52:00,21.0,19.0,-100.00,SSE,150,2.0,4.0,90,0.00,,,-99.99,1.000000,,2013-12-27 14:52:00,
2013-12-27 09:02:00,21.0,19.0,-100.00,SSE,150,2.0,4.0,90,0.00,,,-99.99,1.000000,,2013-12-27 15:02:00,
2013-12-27 09:11:00,21.0,19.0,-100.00,SSE,150,2.0,4.0,90,0.00,,,-99.99,1.000000,,2013-12-27 15:11:00,
2013-12-27 09:43:00,26.0,23.0,-100.00,South,171,5.0,10.0,88,0.00,,,0.00,62.000000,,2013-12-27 15:43:00,
2013-12-27 09:54:00,26.0,23.0,-100.00,South,171,5.0,10.0,88,0.00,,,0.00,62.000000,,2013-12-27 15:54:00,
2013-12-27 10:03:00,26.0,23.0,-100.00,South,171,5.0,10.0,88,0.00,,,0.00,62.000000,,2013-12-27 16:03:00,
2013-12-27 10:13:00,26.0,23.0,-100.00,South,171,5.0,10.0,88,0.00,,,0.00,62.000000,,2013-12-27 16:13:00,
2013-12-27 10:43:00,30.0,25.0,-100.00,South,175,9.0,18.0,80,0.00,,,0.00,148.000000,,2013-12-27 16:43:00,
2013-12-27 10:53:00,30.0,25.0,-100.00,South,175,9.0,18.0,80,0.00,,,0.00,148.000000,,2013-12-27 16:53:00,
2013-12-27 11:02:00,30.0,25.0,-100.00,South,175,9.0,18.0,80,0.00,,,0.00,148.000000,,2013-12-27 17:02:00,
2013-12-27 11:12:00,30.0,25.0,-100.00,South,175,9.0,18.0,80,0.00,,,0.00,148.000000,,2013-12-27 17:12:00,
2013-12-27 11:43:00,31.0,25.0,-100.00,South,183,7.0,17.0,78,0.00,,,0.00,115.000000,,2013-12-27 17:43:00,
2013-12-27 11:52:00,31.0,25.0,-100.00,South,183,7.0,17.0,78,0.00,,,0.00,115.000000,,2013-12-27 17:52:00,
2013-12-27 12:02:00,31.0,25.0,-100.00,South,183,7.0,17.0,78,0.00,,,0.00,115.000000,,2013-12-27 18:02:00,
2013-12-27 12:12:00,31.0,25.0,-100.00,South,183,7.0,17.0,78,0.00,,,0.00,115.000000,,2013-12-27 18:12:00,
2013-12-27 12:42:00,34.0,25.0,-100.00,SSW,203,7.0,18.0,70,0.02,,,0.02,217.000000,,2013-12-27 18:42:00,
2013-12-27 12:53:00,34.0,25.0,-100.00,SSW,203,7.0,18.0,70,0.02,,,0.02,217.000000,,2013-12-27 18:53:00,
2013-12-27 13:02:00,34.0,25.0,-100.00,SSW,203,7.0,18.0,70,0.02,,,0.02,217.000000,,2013-12-27 19:02:00,
2013-12-27 13:12:00,34.0,25.0,-100.00,SSW,203,7.0,18.0,70,0.02,,,0.02,217.000000,,2013-12-27 19:12:00,
2013-12-27 13:42:00,36.0,25.0,-100.00,SSW,213,6.0,17.0,64,0.02,,,0.04,284.000000,,2013-12-27 19:42:00,
2013-12-27 13:52:00,36.0,25.0,-100.00,SSW,213,6.0,17.0,64,0.02,,,0.04,284.000000,,2013-12-27 19:52:00,
2013-12-27 14:02:00,36.0,25.0,-100.00,SSW,213,6.0,17.0,64,0.02,,,0.04,284.000000,,2013-12-27 20:02:00,
2013-12-27 14:11:00,36.0,25.0,-100.00,SSW,213,6.0,17.0,64,0.02,,,0.04,284.000000,,2013-12-27 20:11:00,
2013-12-27 14:42:00,37.0,26.0,-100.00,SW,222,5.0,15.0,63,0.02,,,0.06,200.000000,,2013-12-27 20:42:00,
2013-12-27 14:52:00,37.0,26.0,-100.00,SW,222,5.0,15.0,63,0.02,,,0.06,200.000000,,2013-12-27 20:52:00,
2013-12-27 15:02:00,37.0,26.0,-100.00,SW,222,5.0,15.0,63,0.02,,,0.06,200.000000,,2013-12-27 21:02:00,
2013-12-27 15:11:00,37.0,26.0,-100.00,SW,222,5.0,15.0,63,0.02,,,0.06,200.000000,,2013-12-27 21:11:00,
2013-12-27 15:43:00,38.0,26.0,-100.00,WSW,241,7.0,15.0,61,0.03,,,0.09,167.000000,,2013-12-27 21:43:00,
2013-12-27 15:53:00,38.0,26.0,-100.00,WSW,241,7.0,15.0,61,0.03,,,0.09,167.000000,,2013-12-27 21:53:00,
2013-12-27 16:03:00,38.0,26.0,-100.00,WSW,241,7.0,15.0,61,0.03,,,0.09,167.000000,,2013-12-27 22:03:00,
2013-12-27 16:13:00,38.0,26.0,-100.00,WSW,241,7.0,15.0,61,0.03,,,0.09,167.000000,,2013-12-27 22:13:00,
2013-12-27 16:43:00,35.0,26.0,-100.00,WSW,243,3.0,13.0,69,0.01,,,0.10,57.000000,,2013-12-27 22:43:00,
2013-12-27 16:53:00,35.0,26.0,-100.00,WSW,243,3.0,13.0,69,0.01,,,0.10,57.000000,,2013-12-27 22:53:00,
2013-12-27 17:02:00,35.0,26.0,-100.00,WSW,243,3.0,13.0,69,0.01,,,0.10,57.000000,,2013-12-27 23:02:00,
2013-12-27 17:12:00,35.0,26.0,-100.00,WSW,243,3.0,13.0,69,0.01,,,0.10,57.000000,,2013-12-27 23:12:00,
2013-12-27 17:42:00,32.0,25.0,-100.00,WSW,242,1.0,6.0,76,0.00,,,0.10,2.000000,,2013-12-27 23:42:00,
2013-12-27 17:53:00,32.0,25.0,-100.00,WSW,242,1.0,6.0,76,0.00,,,0.10,2.000000,,2013-12-27 23:53:00,
2013-12-27 18:02:00,32.0,25.0,-100.00,WSW,242,1.0,6.0,76,0.00,,,0.10,2.000000,,2013-12-28 00:02:00,
2013-12-27 18:11:00,32.0,25.0,-100.00,WSW,242,1.0,6.0,76,0.00,,,0.10,2.000000,,2013-12-28 00:11:00,
2013-12-27 18:42:00,30.0,26.0,-100.00,SW,222,2.0,6.0,84,0.00,,,0.10,0.000000,,2013-12-28 00:42:00,
2013-12-27 18:52:00,30.0,26.0,-100.00,SW,222,2.0,6.0,84,0.00,,,0.10,0.000000,,2013-12-28 00:52:00,
2013-12-27 19:02:00,30.0,26.0,-100.00,SW,222,2.0,6.0,84,0.00,,,0.10,0.000000,,2013-12-28 01:02:00,
2013-12-27 19:11:00,30.0,26.0,-100.00,SW,222,2.0,6.0,84,0.00,,,0.10,0.000000,,2013-12-28 01:11:00,
2013-12-27 19:42:00,28.0,25.0,-100.00,SW,228,1.0,5.0,87,0.00,,,0.10,0.000000,,2013-12-28 01:42:00,
2013-12-27 19:52:00,28.0,25.0,-100.00,SW,228,1.0,5.0,87,0.00,,,0.10,0.000000,,2013-12-28 01:52:00,
2013-12-27 20:01:00,28.0,25.0,-100.00,SW,228,1.0,5.0,87,0.00,,,0.10,0.000000,,2013-12-28 02:01:00,
2013-12-27 20:12:00,28.0,25.0,-100.00,SW,228,1.0,5.0,87,0.00,,,0.10,0.000000,,2013-12-28 02:12:00,
2013-12-27 20:42:00,23.0,21.0,-100.00,SW,232,1.0,4.0,92,0.00,,,0.10,0.000000,,2013-12-28 02:42:00,
2013-12-27 20:52:00,23.0,21.0,-100.00,SW,232,1.0,4.0,92,0.00,,,0.10,0.000000,,2013-12-28 02:52:00,
2013-12-27 21:02:00,23.0,21.0,-100.00,SW,232,1.0,4.0,92,0.00,,,0.10,0.000000,,2013-12-28 03:02:00,
2013-12-27 21:12:00,23.0,21.0,-100.00,SW,232,1.0,4.0,92,0.00,,,0.10,0.000000,,2013-12-28 03:12:00,